createdAt,value
2022-08-03T10:48:56.563Z,100.00
2022-08-03T10:51:30.456Z,100.00
2022-08-03T10:53:59.713Z,100.00
2022-08-03T10:57:13.648Z,100.00
2022-08-03T11:00:02.756Z,100.00
2022-08-03T11:03:10.591Z,100.00
2022-08-03T11:05:43.232Z,100.00
2022-08-03T11:08:30.741Z,100.00
2022-08-03T11:11:02.932Z,100.00
2022-08-03T11:13:33.891Z,100.00
2022-08-03T11:16:21.820Z,100.00
2022-08-03T11:18:59.583Z,100.00
2022-08-03T11:21:58.135Z,100.00
2022-08-03T11:25:02.884Z,100.00
2022-08-03T11:27:33.735Z,100.00
2022-08-03T11:30:08.660Z,100.00
2022-08-03T11:32:56.239Z,100.00
2022-08-03T11:35:27.002Z,100.00
2022-08-03T11:38:11.556Z,100.00
2022-08-03T11:40:50.836Z,100.00
2022-08-03T11:43:47.469Z,100.00
2022-08-03T11:46:28.216Z,100.00
2022-08-03T11:49:10.455Z,100.00
2022-08-03T11:51:40.585Z,100.00
2022-08-03T11:54:11.398Z,100.00
2022-08-03T11:56:48.125Z,100.00
2022-08-03T11:59:21.751Z,100.00
2022-08-03T12:01:51.293Z,100.00
2022-08-03T12:04:20.620Z,100.00
2022-08-03T12:07:02.045Z,100.00
2022-08-03T12:09:34.467Z,100.00
2022-08-03T12:12:02.947Z,100.00
2022-08-03T12:14:48.861Z,100.00
2022-08-03T12:17:19.999Z,100.00
2022-08-03T12:19:48.476Z,100.00
2022-08-03T12:22:17.828Z,96.79
2022-08-03T12:24:47.919Z,92.71
2022-08-03T12:27:26.431Z,89.59
2022-08-03T12:29:58.334Z,89.43
2022-08-03T12:32:27.609Z,88.10
2022-08-03T12:35:00.129Z,88.13
2022-08-03T12:37:29.887Z,89.38
2022-08-03T12:40:09.551Z,89.49
2022-08-03T12:42:40.630Z,84.23
2022-08-03T12:45:23.960Z,80.47
2022-08-03T12:47:57.032Z,83.32
2022-08-03T12:50:28.478Z,83.20
2022-08-03T12:52:58.461Z,82.35
2022-08-03T12:55:57.586Z,82.45
2022-08-03T12:58:34.187Z,80.28
2022-08-03T13:01:09.208Z,80.37
2022-08-03T13:03:49.931Z,78.91
2022-08-03T13:06:22.378Z,76.97
2022-08-03T13:09:02.282Z,76.04
2022-08-03T13:11:55.966Z,78.00
2022-08-03T13:14:21.195Z,74.54
2022-08-03T13:16:50.474Z,76.58
2022-08-03T13:19:18.751Z,75.25
2022-08-03T13:22:03.138Z,73.74
2022-08-03T13:24:34.199Z,73.78
2022-08-03T13:28:01.270Z,71.20
2022-08-03T13:29:55.043Z,70.51
2022-08-03T13:32:24.900Z,70.55
2022-08-03T13:34:53.165Z,70.10
2022-08-03T13:37:23.951Z,69.44
2022-08-03T13:39:59.192Z,69.87
2022-08-03T13:42:32.432Z,70.42
2022-08-03T13:45:02.087Z,68.70
2022-08-03T13:47:30.644Z,69.61
2022-08-03T13:50:00.932Z,68.30
2022-08-03T13:52:32.991Z,68.64
2022-08-03T13:55:01.609Z,68.83
2022-08-03T13:58:04.378Z,66.50
2022-08-03T14:00:26.364Z,64.64
2022-08-03T14:03:16.406Z,65.63
2022-08-03T14:05:45.249Z,64.06
2022-08-03T14:08:13.792Z,65.62
2022-08-03T14:10:45.669Z,65.48
2022-08-03T14:13:17.732Z,64.22
2022-08-03T14:15:50.107Z,62.19
2022-08-03T14:18:29.013Z,62.87
2022-08-03T14:21:07.386Z,61.62
2022-08-03T14:23:38.490Z,61.92
2022-08-03T14:26:08.788Z,60.32
2022-08-03T14:28:38.763Z,57.23
2022-08-03T14:31:08.373Z,56.61
2022-08-03T14:33:46.969Z,55.96
2022-08-03T14:36:15.173Z,56.94
2022-08-03T14:38:43.369Z,56.17
2022-08-03T14:41:19.689Z,56.61
2022-08-03T14:44:01.563Z,56.41
2022-08-03T14:46:31.572Z,56.52
2022-08-03T14:50:33.075Z,56.08
2022-08-03T14:51:53.445Z,57.11
2022-08-03T14:54:23.199Z,56.73
2022-08-03T14:56:52.345Z,56.99
2022-08-03T14:59:21.913Z,58.08
2022-08-03T15:02:04.437Z,57.97
2022-08-03T15:04:34.899Z,58.93
2022-08-03T15:07:03.270Z,58.40
2022-08-03T15:09:31.683Z,56.60
2022-08-03T15:12:00.373Z,56.85
2022-08-03T15:14:33.140Z,56.03
2022-08-03T15:17:05.845Z,56.71
2022-08-03T15:20:02.752Z,56.57
2022-08-03T15:22:24.828Z,55.90
2022-08-03T15:24:56.063Z,56.98
2022-08-03T15:27:24.553Z,54.45
2022-08-03T15:30:05.255Z,56.33
2022-08-03T15:32:38.529Z,55.79
2022-08-03T15:35:07.710Z,54.51
2022-08-03T15:37:36.112Z,54.46
2022-08-03T15:40:05.467Z,53.48
2022-08-03T15:42:34.618Z,53.25
2022-08-03T15:45:04.710Z,53.52
2022-08-03T15:47:33.025Z,53.62
2022-08-03T15:50:02.699Z,53.67
2022-08-03T15:52:35.972Z,53.77
2022-08-03T15:55:05.130Z,52.54
2022-08-03T15:59:04.203Z,52.15
2022-08-03T16:00:33.901Z,53.08
2022-08-03T16:03:02.522Z,53.53
2022-08-03T16:05:30.958Z,52.12
2022-08-03T16:08:03.822Z,51.55
2022-08-03T16:10:33.991Z,51.69
2022-08-03T16:13:02.325Z,50.53
2022-08-03T16:15:31.985Z,51.12
2022-08-03T16:18:00.727Z,51.93
2022-08-03T16:20:31.307Z,50.94
2022-08-03T16:23:11.545Z,50.88
2022-08-03T16:25:41.736Z,51.45
2022-08-03T16:28:14.642Z,52.14
2022-08-03T16:30:47.207Z,51.01
2022-08-03T16:33:17.827Z,51.26
2022-08-03T16:35:46.831Z,50.48
2022-08-03T16:38:18.899Z,51.33
2022-08-03T16:40:51.548Z,50.30
2022-08-03T16:43:22.039Z,49.92
2022-08-03T16:45:52.156Z,51.65
2022-08-03T16:48:21.210Z,50.65
2022-08-03T16:50:49.604Z,52.37
2022-08-03T16:53:33.227Z,51.96
2022-08-03T16:56:10.069Z,54.34
2022-08-03T16:58:42.274Z,55.69
2022-08-03T17:01:21.830Z,56.07
2022-08-03T17:04:01.475Z,58.10
2022-08-03T17:06:36.134Z,59.69
2022-08-03T17:09:09.107Z,64.97
2022-08-03T17:11:43.957Z,67.23
2022-08-03T17:14:14.338Z,67.31
2022-08-03T17:16:52.201Z,69.41
2022-08-03T17:19:24.628Z,72.88
2022-08-03T17:22:04.230Z,75.53
2022-08-03T17:24:35.112Z,81.99
2022-08-03T17:27:09.013Z,82.49
2022-08-03T17:29:45.782Z,79.99
2022-08-03T17:32:21.276Z,84.15
2022-08-03T17:34:50.201Z,89.72
2022-08-03T17:37:50.205Z,91.79
2022-08-03T17:40:17.477Z,97.66
2022-08-03T17:42:50.525Z,95.74
2022-08-03T17:45:20.916Z,98.39
2022-08-03T17:47:57.083Z,99.45
2022-08-03T17:50:40.362Z,100.00
2022-08-03T17:53:15.174Z,99.63
2022-08-03T17:56:04.409Z,100.00
2022-08-03T17:58:54.591Z,100.00
2022-08-03T18:02:01.806Z,100.00
2022-08-03T18:04:43.256Z,100.00
2022-08-03T18:07:40.891Z,100.00
2022-08-03T18:10:15.242Z,100.00
2022-08-03T18:12:52.210Z,100.00
2022-08-03T18:15:30.262Z,100.00
2022-08-03T18:18:10.340Z,100.00
2022-08-03T18:20:42.685Z,100.00
2022-08-03T18:23:36.571Z,100.00
2022-08-03T18:26:07.071Z,100.00
2022-08-03T18:28:38.309Z,100.00
2022-08-03T18:31:07.773Z,100.00
2022-08-03T18:36:31.957Z,100.00
2022-08-03T18:39:04.386Z,100.00
2022-08-03T18:41:35.042Z,100.00
2022-08-03T18:44:06.643Z,100.00
2022-08-03T18:46:51.526Z,100.00
2022-08-03T18:49:35.384Z,100.00
2022-08-03T18:52:12.645Z,100.00
2022-08-03T18:55:02.523Z,100.00
2022-08-03T18:57:44.492Z,100.00
2022-08-03T19:00:24.120Z,100.00
2022-08-03T19:03:02.462Z,100.00
2022-08-03T19:06:02.240Z,100.00
2022-08-03T19:08:46.066Z,100.00
2022-08-03T19:11:28.037Z,100.00
2022-08-03T19:14:00.310Z,100.00
2022-08-03T19:16:38.653Z,100.00
2022-08-03T19:19:14.353Z,100.00
2022-08-03T19:21:42.697Z,100.00
2022-08-03T19:24:14.841Z,100.00
2022-08-03T19:26:44.119Z,100.00
2022-08-03T19:29:18.769Z,100.00
2022-08-03T19:31:59.089Z,100.00
2022-08-03T19:34:32.621Z,100.00
2022-08-03T19:37:03.113Z,100.00
2022-08-03T19:39:33.602Z,100.00
2022-08-03T19:42:12.157Z,100.00
2022-08-03T19:45:11.243Z,100.00
2022-08-03T19:47:49.216Z,100.00
2022-08-03T19:50:19.092Z,100.00
2022-08-03T19:52:50.600Z,100.00
2022-08-03T19:55:20.574Z,100.00
2022-08-03T19:57:53.548Z,100.00
2022-08-03T20:00:30.487Z,100.00
2022-08-03T20:03:06.387Z,100.00
2022-08-03T20:05:52.142Z,100.00
2022-08-03T20:08:23.020Z,100.00
2022-08-03T20:10:53.769Z,100.00
2022-08-03T20:13:22.160Z,100.00
2022-08-03T20:15:56.810Z,100.00
2022-08-03T20:18:25.531Z,100.00
2022-08-03T20:20:58.729Z,100.00
2022-08-03T20:26:29.614Z,100.00
2022-08-03T20:29:08.970Z,100.00
2022-08-03T20:31:37.701Z,100.00
2022-08-03T20:34:07.388Z,100.00
2022-08-03T20:36:38.113Z,100.00
2022-08-03T20:39:07.722Z,100.00
2022-08-03T20:41:39.093Z,100.00
2022-08-03T20:44:07.926Z,100.00
2022-08-03T20:46:50.175Z,100.00
2022-08-03T20:49:24.723Z,100.00
2022-08-03T20:51:54.982Z,100.00
2022-08-03T20:54:29.500Z,100.00
2022-08-03T20:57:03.446Z,100.00
2022-08-03T20:59:50.641Z,100.00
2022-08-03T21:02:30.323Z,100.00
2022-08-03T21:05:03.424Z,100.00
2022-08-03T21:08:06.099Z,100.00
2022-08-03T21:10:39.831Z,100.00
2022-08-03T21:12:58.400Z,100.00
2022-08-03T21:13:06.784Z,100.00
2022-08-03T21:16:12.012Z,100.00
2022-08-03T21:18:47.047Z,100.00
2022-08-03T21:21:18.518Z,100.00
2022-08-03T21:23:52.532Z,100.00
2022-08-03T21:26:24.067Z,100.00
2022-08-03T21:28:56.343Z,100.00
2022-08-03T21:31:26.683Z,100.00
2022-08-03T21:33:57.798Z,100.00
2022-08-03T21:36:30.008Z,100.00
2022-08-03T21:39:00.476Z,100.00
2022-08-03T21:41:33.684Z,100.00
2022-08-03T21:44:06.162Z,100.00
2022-08-03T21:46:38.445Z,100.00
2022-08-03T21:50:04.785Z,100.00
2022-08-03T21:52:00.384Z,100.00
2022-08-03T21:54:35.105Z,100.00
2022-08-03T21:57:09.962Z,100.00
2022-08-03T21:59:45.624Z,100.00
2022-08-03T22:02:24.174Z,100.00
2022-08-03T22:04:56.970Z,100.00
2022-08-03T22:07:27.331Z,100.00
2022-08-03T22:09:57.147Z,100.00
2022-08-03T22:12:27.476Z,100.00
2022-08-03T22:15:00.783Z,100.00
2022-08-03T22:17:56.214Z,100.00
2022-08-03T22:20:21.268Z,100.00
2022-08-03T22:22:55.757Z,100.00
2022-08-03T22:25:29.866Z,100.00
2022-08-03T22:28:00.437Z,100.00
2022-08-03T22:30:31.574Z,100.00
2022-08-03T22:33:02.511Z,100.00
2022-08-03T22:35:44.348Z,100.00
2022-08-03T22:38:18.134Z,100.00
2022-08-03T22:40:49.889Z,100.00
2022-08-03T22:43:18.670Z,100.00
2022-08-03T22:46:09.464Z,100.00
2022-08-03T22:48:41.392Z,100.00
2022-08-03T22:51:10.339Z,100.00
2022-08-03T22:53:39.925Z,100.00
2022-08-03T22:56:08.864Z,100.00
2022-08-03T22:58:37.102Z,100.00
2022-08-03T23:01:08.940Z,100.00
2022-08-03T23:04:00.151Z,100.00
2022-08-03T23:06:35.939Z,100.00
2022-08-03T23:09:09.064Z,100.00
2022-08-03T23:11:45.417Z,100.00
2022-08-03T23:14:19.649Z,100.00
2022-08-03T23:16:51.372Z,100.00
2022-08-03T23:19:25.096Z,100.00
2022-08-03T23:22:02.913Z,100.00
2022-08-03T23:24:35.876Z,100.00
2022-08-03T23:27:06.362Z,100.00
2022-08-03T23:29:37.330Z,100.00
2022-08-03T23:32:08.720Z,100.00
2022-08-03T23:34:58.197Z,100.00
2022-08-03T23:37:27.033Z,100.00
2022-08-03T23:39:57.950Z,100.00
2022-08-03T23:42:27.936Z,100.00
2022-08-03T23:45:05.857Z,100.00
2022-08-03T23:47:45.981Z,100.00
2022-08-03T23:50:15.608Z,100.00
2022-08-03T23:53:01.061Z,100.00
2022-08-03T23:55:53.275Z,100.00
2022-08-03T23:58:41.618Z,100.00
